DLH137 EDDF-LDRI
Flight info
| Callsign | DLH137 |
|---|---|
| Flight time | N/A |
| Altitude | 33000 |
| Route | CINDY8S/18 CINDY Z74 LAMPU DCT NOMBO Y161 MAH DCT VAVOR DCT RADIZ DCT VEKEN DCT GIRDA |
| Aircraft | A321/M-SDE3FGHIRWY/LB1 |
Departure
| Time | N/A |
|---|---|
| Airport | Frankfurt Main Airport (EDDF) |
Arrival
| Time | 2026-04-28 15:03 |
|---|---|
| Airport | Rijeka Airport (LDRI) |
| Time | Latitude | Longitude | Altitude | Speed | Heading |
|---|---|---|---|---|---|
| 2026-04-28 14:11 | 49.41926 | 9.59610 | 22300 ft | 416 kts | 152° |
| 2026-04-28 14:12 | 49.39430 | 9.61873 | 22721 ft | 418 kts | 152° |
| 2026-04-28 14:12 | 49.37362 | 9.63744 | 23053 ft | 420 kts | 152° |
| 2026-04-28 14:12 | 49.34861 | 9.66091 | 23471 ft | 424 kts | 147° |
| 2026-04-28 14:12 | 49.32538 | 9.69018 | 23833 ft | 429 kts | 137° |
| 2026-04-28 14:13 | 49.30475 | 9.72185 | 24150 ft | 432 kts | 137° |
| 2026-04-28 14:13 | 49.28339 | 9.75466 | 24475 ft | 435 kts | 137° |
| 2026-04-28 14:13 | 49.25957 | 9.79109 | 24838 ft | 438 kts | 137° |
| 2026-04-28 14:13 | 49.23787 | 9.82413 | 25163 ft | 441 kts | 138° |
| 2026-04-28 14:14 | 49.21601 | 9.85735 | 25451 ft | 444 kts | 138° |
| 2026-04-28 14:14 | 49.19400 | 9.89076 | 25766 ft | 447 kts | 139° |
| 2026-04-28 14:14 | 49.17182 | 9.92441 | 26087 ft | 450 kts | 139° |
| 2026-04-28 14:14 | 49.14952 | 9.95824 | 26384 ft | 453 kts | 139° |
| 2026-04-28 14:15 | 49.12706 | 9.99229 | 26680 ft | 455 kts | 139° |
| 2026-04-28 14:15 | 49.10448 | 10.02641 | 26979 ft | 458 kts | 139° |
| 2026-04-28 14:15 | 49.08173 | 10.06065 | 27250 ft | 461 kts | 139° |
| 2026-04-28 14:15 | 49.05880 | 10.09507 | 27526 ft | 464 kts | 140° |
| 2026-04-28 14:16 | 49.03547 | 10.12923 | 27811 ft | 466 kts | 141° |
| 2026-04-28 14:16 | 49.01169 | 10.16305 | 28106 ft | 469 kts | 142° |
| 2026-04-28 14:16 | 48.98784 | 10.19637 | 28361 ft | 472 kts | 142° |
| 2026-04-28 14:16 | 48.96352 | 10.23012 | 28621 ft | 475 kts | 142° |
| 2026-04-28 14:17 | 48.93908 | 10.26408 | 28912 ft | 477 kts | 142° |
| 2026-04-28 14:17 | 48.91455 | 10.29842 | 29212 ft | 480 kts | 142° |
| 2026-04-28 14:17 | 48.88997 | 10.33305 | 29496 ft | 482 kts | 142° |
| 2026-04-28 14:17 | 48.86529 | 10.36793 | 29762 ft | 485 kts | 142° |
| 2026-04-28 14:18 | 48.84058 | 10.40282 | 30027 ft | 487 kts | 142° |
| 2026-04-28 14:18 | 48.81586 | 10.43835 | 30202 ft | 491 kts | 141° |
| 2026-04-28 14:18 | 48.79164 | 10.47542 | 30340 ft | 497 kts | 139° |
| 2026-04-28 14:18 | 48.76785 | 10.51374 | 30533 ft | 499 kts | 137° |
| 2026-04-28 14:19 | 48.74458 | 10.55216 | 30690 ft | 502 kts | 137° |
| 2026-04-28 14:19 | 48.72104 | 10.59125 | 30936 ft | 502 kts | 137° |
| 2026-04-28 14:19 | 48.69734 | 10.63017 | 31205 ft | 502 kts | 137° |
| 2026-04-28 14:19 | 48.67334 | 10.66891 | 31460 ft | 502 kts | 138° |
| 2026-04-28 14:20 | 48.64931 | 10.70712 | 31712 ft | 502 kts | 139° |
| 2026-04-28 14:20 | 48.62515 | 10.74519 | 31970 ft | 502 kts | 139° |
| 2026-04-28 14:20 | 48.60093 | 10.78319 | 32224 ft | 502 kts | 139° |
| 2026-04-28 14:20 | 48.57671 | 10.82125 | 32483 ft | 502 kts | 139° |
| 2026-04-28 14:21 | 48.55260 | 10.85949 | 32704 ft | 503 kts | 138° |
| 2026-04-28 14:21 | 48.52855 | 10.89793 | 32941 ft | 504 kts | 138° |
| 2026-04-28 14:21 | 48.50482 | 10.93594 | 33085 ft | 504 kts | 138° |
| 2026-04-28 14:21 | 48.48067 | 10.97470 | 33114 ft | 497 kts | 138° |
| 2026-04-28 14:22 | 48.43336 | 11.04914 | 33111 ft | 494 kts | 139° |
| 2026-04-28 14:22 | 48.38542 | 11.12322 | 33109 ft | 493 kts | 139° |
| 2026-04-28 14:23 | 48.33749 | 11.19719 | 33107 ft | 493 kts | 139° |
| 2026-04-28 14:23 | 48.28964 | 11.27125 | 33091 ft | 493 kts | 139° |
| 2026-04-28 14:24 | 48.24765 | 11.35257 | 33092 ft | 500 kts | 122° |
| 2026-04-28 14:24 | 48.21296 | 11.44319 | 33094 ft | 501 kts | 123° |
| 2026-04-28 14:25 | 48.17802 | 11.53352 | 33096 ft | 501 kts | 123° |
| 2026-04-28 14:25 | 48.14287 | 11.62383 | 33105 ft | 501 kts | 123° |
| 2026-04-28 14:26 | 48.10792 | 11.71331 | 33116 ft | 501 kts | 123° |
| 2026-04-28 14:26 | 48.07274 | 11.80319 | 33112 ft | 501 kts | 123° |
| 2026-04-28 14:27 | 48.03755 | 11.89302 | 33112 ft | 501 kts | 123° |
| 2026-04-28 14:27 | 48.00222 | 11.98263 | 33098 ft | 500 kts | 123° |
| 2026-04-28 14:28 | 47.96685 | 12.07198 | 33107 ft | 499 kts | 123° |
| 2026-04-28 14:28 | 47.92795 | 12.15706 | 33110 ft | 493 kts | 136° |
| 2026-04-28 14:29 | 47.87778 | 12.22512 | 33103 ft | 486 kts | 145° |
| 2026-04-28 14:29 | 47.82655 | 12.28928 | 33104 ft | 486 kts | 145° |
| 2026-04-28 14:30 | 47.77473 | 12.35408 | 33094 ft | 486 kts | 145° |
| 2026-04-28 14:30 | 47.72291 | 12.41873 | 33067 ft | 486 kts | 145° |
| 2026-04-28 14:31 | 47.67135 | 12.48282 | 33075 ft | 486 kts | 145° |
| 2026-04-28 14:31 | 47.61819 | 12.54452 | 33080 ft | 479 kts | 154° |
| 2026-04-28 14:32 | 47.56009 | 12.59184 | 33078 ft | 476 kts | 158° |
| 2026-04-28 14:32 | 47.50216 | 12.63853 | 33053 ft | 476 kts | 158° |
| 2026-04-28 14:33 | 47.44396 | 12.68556 | 33068 ft | 476 kts | 157° |
| 2026-04-28 14:33 | 47.38631 | 12.73215 | 33044 ft | 472 kts | 158° |
| 2026-04-28 14:34 | 47.29956 | 12.80128 | 33044 ft | 473 kts | 158° |
| 2026-04-28 14:35 | 47.25124 | 12.83963 | 33042 ft | 474 kts | 158° |
| 2026-04-28 14:35 | 47.18326 | 12.89363 | 33081 ft | 475 kts | 158° |
| 2026-04-28 14:36 | 47.12501 | 12.94000 | 33068 ft | 476 kts | 158° |
| 2026-04-28 14:36 | 47.07593 | 12.97894 | 33081 ft | 476 kts | 158° |
| 2026-04-28 14:37 | 47.01785 | 13.02481 | 33066 ft | 477 kts | 158° |
| 2026-04-28 14:37 | 46.95036 | 13.07781 | 33077 ft | 477 kts | 157° |
| 2026-04-28 14:38 | 46.90167 | 13.11608 | 33076 ft | 477 kts | 157° |
| 2026-04-28 14:38 | 46.84326 | 13.16193 | 33098 ft | 477 kts | 157° |
| 2026-04-28 14:39 | 46.78473 | 13.20764 | 33063 ft | 478 kts | 157° |
| 2026-04-28 14:39 | 46.72606 | 13.25329 | 33067 ft | 478 kts | 157° |
| 2026-04-28 14:40 | 46.66724 | 13.29900 | 33063 ft | 479 kts | 157° |
| 2026-04-28 14:40 | 46.60841 | 13.34475 | 33073 ft | 479 kts | 157° |
| 2026-04-28 14:41 | 46.54991 | 13.38992 | 33078 ft | 478 kts | 158° |
| 2026-04-28 14:41 | 46.49037 | 13.43275 | 33095 ft | 476 kts | 160° |
| 2026-04-28 14:42 | 46.43051 | 13.47399 | 33098 ft | 476 kts | 160° |
| 2026-04-28 14:42 | 46.37070 | 13.51539 | 33065 ft | 476 kts | 160° |
| 2026-04-28 14:43 | 46.31104 | 13.55726 | 33079 ft | 475 kts | 159° |
| 2026-04-28 14:43 | 46.25196 | 13.59883 | 33090 ft | 475 kts | 159° |
| 2026-04-28 14:44 | 46.19234 | 13.64059 | 33044 ft | 477 kts | 159° |
| 2026-04-28 14:44 | 46.13222 | 13.68253 | 33025 ft | 479 kts | 159° |
| 2026-04-28 14:45 | 46.07233 | 13.72416 | 33047 ft | 482 kts | 159° |
| 2026-04-28 14:45 | 46.01180 | 13.76622 | 33058 ft | 483 kts | 159° |
| 2026-04-28 14:46 | 45.95116 | 13.80823 | 32932 ft | 482 kts | 159° |
| 2026-04-28 14:46 | 45.92079 | 13.82919 | 32015 ft | 486 kts | 159° |
| 2026-04-28 14:46 | 45.89031 | 13.85015 | 31285 ft | 484 kts | 159° |
| 2026-04-28 14:46 | 45.85998 | 13.87100 | 30658 ft | 481 kts | 159° |
| 2026-04-28 14:47 | 45.83045 | 13.89135 | 29690 ft | 471 kts | 159° |
| 2026-04-28 14:47 | 45.80115 | 13.91159 | 28417 ft | 463 kts | 159° |
| 2026-04-28 14:47 | 45.77237 | 13.93148 | 27220 ft | 454 kts | 159° |
| 2026-04-28 14:47 | 45.74418 | 13.95094 | 26093 ft | 445 kts | 158° |
| 2026-04-28 14:48 | 45.71643 | 13.97002 | 24995 ft | 436 kts | 158° |
| 2026-04-28 14:48 | 45.68934 | 13.98853 | 23919 ft | 428 kts | 158° |
| 2026-04-28 14:48 | 45.66271 | 14.00670 | 22742 ft | 420 kts | 158° |
| 2026-04-28 14:48 | 45.63613 | 14.02478 | 21559 ft | 427 kts | 158° |
| 2026-04-28 14:49 | 45.60901 | 14.04315 | 20403 ft | 436 kts | 157° |
| 2026-04-28 14:49 | 45.58138 | 14.06184 | 19447 ft | 439 kts | 157° |
| 2026-04-28 14:49 | 45.55452 | 14.08010 | 19163 ft | 424 kts | 157° |
| 2026-04-28 14:49 | 45.52837 | 14.09799 | 18921 ft | 409 kts | 156° |
| 2026-04-28 14:50 | 45.50298 | 14.11538 | 18683 ft | 396 kts | 157° |
| 2026-04-28 14:50 | 45.47855 | 14.13223 | 18440 ft | 384 kts | 154° |
| 2026-04-28 14:50 | 45.45615 | 14.15199 | 18189 ft | 374 kts | 149° |
| 2026-04-28 14:50 | 45.43461 | 14.17203 | 17915 ft | 366 kts | 149° |
| 2026-04-28 14:51 | 45.41339 | 14.19178 | 17647 ft | 363 kts | 149° |
| 2026-04-28 14:51 | 45.39229 | 14.21144 | 17381 ft | 361 kts | 149° |
| 2026-04-28 14:51 | 45.37171 | 14.23059 | 17078 ft | 354 kts | 149° |
| 2026-04-28 14:51 | 45.35124 | 14.24959 | 16659 ft | 349 kts | 149° |
| 2026-04-28 14:52 | 45.33095 | 14.26840 | 16236 ft | 345 kts | 149° |
| 2026-04-28 14:52 | 45.31096 | 14.28697 | 15818 ft | 341 kts | 149° |
| 2026-04-28 14:52 | 45.29124 | 14.30529 | 15397 ft | 337 kts | 149° |
| 2026-04-28 14:52 | 45.27162 | 14.32349 | 14994 ft | 333 kts | 149° |
| 2026-04-28 14:53 | 45.25228 | 14.34138 | 14581 ft | 329 kts | 149° |
| 2026-04-28 14:53 | 45.23314 | 14.35902 | 14170 ft | 326 kts | 149° |
| 2026-04-28 14:53 | 45.21421 | 14.37642 | 13756 ft | 323 kts | 149° |
| 2026-04-28 14:53 | 45.19560 | 14.39355 | 13347 ft | 320 kts | 148° |
| 2026-04-28 14:54 | 45.17704 | 14.41064 | 12961 ft | 316 kts | 148° |
| 2026-04-28 14:54 | 45.15870 | 14.42752 | 12559 ft | 312 kts | 149° |
| 2026-04-28 14:54 | 45.14068 | 14.44434 | 12173 ft | 309 kts | 147° |
| 2026-04-28 14:54 | 45.12320 | 14.46191 | 11776 ft | 306 kts | 145° |
| 2026-04-28 14:55 | 45.10613 | 14.47983 | 11386 ft | 304 kts | 144° |
| 2026-04-28 14:55 | 45.08925 | 14.49777 | 11000 ft | 301 kts | 144° |
| 2026-04-28 14:55 | 45.07252 | 14.51550 | 10614 ft | 299 kts | 144° |
| 2026-04-28 14:55 | 45.05590 | 14.53301 | 10292 ft | 295 kts | 145° |
| 2026-04-28 14:56 | 45.03971 | 14.54996 | 10211 ft | 294 kts | 145° |
| 2026-04-28 14:56 | 45.02322 | 14.56711 | 10090 ft | 294 kts | 145° |
| 2026-04-28 14:56 | 45.00662 | 14.58429 | 9610 ft | 299 kts | 145° |
| 2026-04-28 14:56 | 44.98984 | 14.60161 | 9176 ft | 297 kts | 145° |
| 2026-04-28 14:57 | 44.97281 | 14.61916 | 8472 ft | 305 kts | 145° |
| 2026-04-28 14:57 | 44.96155 | 14.63076 | 8306 ft | 299 kts | 144° |
| 2026-04-28 14:57 | 44.94433 | 14.65948 | 8115 ft | 284 kts | 110° |
| 2026-04-28 14:57 | 44.94288 | 14.68668 | 7800 ft | 282 kts | 77° |
| 2026-04-28 14:58 | 44.95133 | 14.71137 | 7270 ft | 287 kts | 56° |
| 2026-04-28 14:58 | 44.96307 | 14.73452 | 6762 ft | 291 kts | 54° |
| 2026-04-28 14:58 | 44.97531 | 14.75739 | 6272 ft | 293 kts | 53° |
| 2026-04-28 14:58 | 44.98981 | 14.77738 | 5768 ft | 294 kts | 29° |
| 2026-04-28 14:59 | 45.00945 | 14.78435 | 5293 ft | 294 kts | 357° |
| 2026-04-28 14:59 | 45.02884 | 14.77616 | 4884 ft | 293 kts | 333° |
| 2026-04-28 14:59 | 45.04564 | 14.75996 | 4440 ft | 293 kts | 321° |
| 2026-04-28 14:59 | 45.06105 | 14.74113 | 3985 ft | 293 kts | 319° |
| 2026-04-28 15:00 | 45.07627 | 14.72186 | 3535 ft | 294 kts | 320° |
| 2026-04-28 15:00 | 45.09156 | 14.70329 | 3085 ft | 292 kts | 319° |
| 2026-04-28 15:00 | 45.10735 | 14.68521 | 2679 ft | 288 kts | 321° |
| 2026-04-28 15:00 | 45.12258 | 14.66862 | 2617 ft | 262 kts | 321° |
| 2026-04-28 15:01 | 45.13659 | 14.65345 | 2252 ft | 246 kts | 320° |
| 2026-04-28 15:01 | 45.14962 | 14.63889 | 1874 ft | 226 kts | 321° |
| 2026-04-28 15:01 | 45.16135 | 14.62666 | 1495 ft | 197 kts | 323° |
| 2026-04-28 15:01 | 45.17235 | 14.61656 | 1195 ft | 177 kts | 324° |
| 2026-04-28 15:02 | 45.18189 | 14.60725 | 942 ft | 162 kts | 320° |
| 2026-04-28 15:02 | 45.19062 | 14.59815 | 773 ft | 154 kts | 322° |
| 2026-04-28 15:02 | 45.19922 | 14.58893 | 528 ft | 157 kts | 322° |
| 2026-04-28 15:02 | 45.20760 | 14.58024 | 326 ft | 143 kts | 322° |
| 2026-04-28 15:03 | 45.21474 | 14.57271 | 285 ft | 97 kts | 322° |
| 2026-04-28 15:03 | 45.21809 | 14.56921 | 285 ft | 42 kts | 324° |
| 2026-04-28 15:03 | 45.21981 | 14.56747 | 287 ft | 16 kts | 324° |
| 2026-04-28 15:03 | 45.22037 | 14.56712 | 287 ft | 4 kts | 31° |
| 2026-04-28 15:04 | 45.22046 | 14.56760 | 287 ft | 7 kts | 92° |
| 2026-04-28 15:04 | 45.22030 | 14.56858 | 288 ft | 12 kts | 104° |
| 2026-04-28 15:04 | 45.22000 | 14.56971 | 288 ft | 13 kts | 130° |
| 2026-04-28 15:04 | 45.21954 | 14.57020 | 288 ft | 3 kts | 144° |
| 2026-04-28 15:05 | 45.21932 | 14.57043 | 288 ft | 5 kts | 143° |
| 2026-04-28 15:05 | 45.21920 | 14.57089 | 288 ft | 6 kts | 103° |
| 2026-04-28 15:05 | 45.21912 | 14.57140 | 288 ft | 0 kts | 103° |